Time;durP1;ratioP1;P1;durP2;ratioP2;P2;SDS_P1;SDS_P2;PMS_P1;PMS_P2;Temp;Humidity;BMP_temperature;BMP_pressure;BME280_temperature;BME280_humidity;BME280_pressure;Samples;Min_cycle;Max_cycle;Signal;HPM_P1;HPM_P2
2023/06/12 00:01:14;;;;;;;3.88;3.45;;;;;;;20.84;65.69;101493.53;20970398;28;20146;-61
2023/06/12 00:11:16;;;;;;;3.83;3.42;;;;;;;20.83;65.53;101480.16;20966227;28;20041;-61
2023/06/12 00:21:19;;;;;;;3.72;3.42;;;;;;;20.81;65.11;101471.31;20970544;28;20064;-61
2023/06/12 00:31:21;;;;;;;3.70;3.28;;;;;;;20.80;65.08;101475.03;20963633;28;20063;-61
2023/06/12 00:41:23;;;;;;;3.10;2.80;;;;;;;20.78;64.86;101471.56;20964051;28;20102;-61
2023/06/12 00:51:28;;;;;;;3.70;2.97;;;;;;;20.75;64.79;101456.47;20967971;28;20049;-61
2023/06/12 01:01:29;;;;;;;3.22;2.83;;;;;;;20.71;64.96;101453.19;20926409;28;20064;-60
2023/06/12 01:11:33;;;;;;;2.85;2.53;;;;;;;20.71;64.80;101449.63;20916990;28;20040;-60
2023/06/12 01:21:36;;;;;;;2.67;2.40;;;;;;;20.70;64.80;101445.22;20926208;28;20040;-61
2023/06/12 01:32:01;;;;;;;2.90;2.50;;;;;;;20.68;64.67;101444.50;20921718;28;20357;-61
2023/06/12 01:42:07;;;;;;;4.30;2.30;;;;;;;20.66;64.38;101435.69;20911893;28;20078;-61
2023/06/12 01:52:09;;;;;;;2.85;2.33;;;;;;;20.65;64.36;101433.97;20915816;28;20106;-61
2023/06/12 02:02:12;;;;;;;3.13;2.38;;;;;;;20.63;64.54;101439.50;20922785;28;20454;-60
2023/06/12 02:12:14;;;;;;;2.15;1.92;;;;;;;20.62;64.24;101429.69;20941944;28;20631;-61
2023/06/12 02:22:16;;;;;;;2.45;2.17;;;;;;;20.55;64.10;101428.53;20922283;28;20074;-61
2023/06/12 02:32:17;;;;;;;3.55;2.40;;;;;;;20.58;63.88;101442.66;20922251;28;20098;-61
2023/06/12 02:42:20;;;;;;;2.58;2.35;;;;;;;20.58;63.94;101441.78;20912943;28;20067;-61
2023/06/12 02:52:22;;;;;;;4.28;2.15;;;;;;;20.56;63.91;101446.47;20946075;28;20517;-61
2023/06/12 03:02:24;;;;;;;2.75;2.30;;;;;;;20.55;63.91;101439.38;20917342;28;20045;-61
2023/06/12 03:12:25;;;;;;;2.67;2.10;;;;;;;20.53;63.90;101454.88;20940314;28;20048;-61
2023/06/12 03:22:28;;;;;;;2.75;2.00;;;;;;;20.51;63.83;101448.75;20939558;28;20072;-61
2023/06/12 03:32:30;;;;;;;2.30;1.80;;;;;;;20.50;63.67;101453.28;20937330;28;20071;-61
2023/06/12 03:42:36;;;;;;;3.03;2.15;;;;;;;20.50;63.78;101449.75;20959153;28;20041;-60
2023/06/12 03:52:39;;;;;;;3.15;1.98;;;;;;;20.48;63.73;101451.75;20929442;28;20043;-61
2023/06/12 04:02:42;;;;;;;3.10;1.90;;;;;;;20.48;64.20;101457.16;20906682;28;20285;-61
2023/06/12 04:12:44;;;;;;;3.72;2.40;;;;;;;20.43;63.84;101463.84;20933105;28;20055;-61
2023/06/12 04:22:47;;;;;;;3.47;2.22;;;;;;;20.28;64.34;101455.25;20932789;28;20041;-61
2023/06/12 04:32:49;;;;;;;5.32;2.67;;;;;;;20.19;65.21;101455.22;20964086;28;20049;-61
2023/06/12 04:42:56;;;;;;;5.30;2.85;;;;;;;20.13;66.34;101456.66;20912080;28;20075;-61
2023/06/12 04:52:59;;;;;;;3.72;2.75;;;;;;;20.08;67.69;101472.41;20934506;28;20127;-61
2023/06/12 05:03:02;;;;;;;4.28;2.45;;;;;;;20.03;69.31;101472.84;20984747;28;20381;-61
2023/06/12 05:13:04;;;;;;;5.35;2.72;;;;;;;20.01;70.34;101480.22;21047904;28;20087;-61
2023/06/12 05:23:06;;;;;;;3.88;2.60;;;;;;;19.96;71.91;101463.56;20969913;28;20052;-61
2023/06/12 05:33:08;;;;;;;5.07;3.22;;;;;;;19.90;72.46;101461.38;20930580;28;20052;-61
2023/06/12 05:43:09;;;;;;;5.20;3.08;;;;;;;19.90;73.58;101466.78;20907957;28;20055;-60
2023/06/12 05:53:12;;;;;;;4.40;3.10;;;;;;;19.90;74.11;101467.66;20905254;28;20394;-60
2023/06/12 06:03:15;;;;;;;3.50;2.67;;;;;;;19.91;75.45;101463.13;20906481;28;20040;-61
2023/06/12 06:13:17;;;;;;;4.13;3.25;;;;;;;19.92;75.28;101467.53;20925331;28;20526;-61
2023/06/12 06:23:21;;;;;;;4.50;2.90;;;;;;;19.95;74.17;101472.66;20986608;28;20474;-61
2023/06/12 06:33:26;;;;;;;6.38;3.00;;;;;;;20.05;73.51;101481.66;20916629;28;20739;-61
2023/06/12 06:43:28;;;;;;;5.15;2.83;;;;;;;20.13;72.80;101475.56;20917570;28;20053;-64
2023/06/12 06:53:32;;;;;;;4.78;2.88;;;;;;;20.17;72.65;101476.13;20899569;28;20053;-64
2023/06/12 07:03:33;;;;;;;4.55;2.38;;;;;;;20.20;72.41;101471.31;20964453;28;20063;-64
2023/06/12 07:13:35;;;;;;;3.67;2.50;;;;;;;20.25;72.07;101470.91;20948428;28;20044;-64
2023/06/12 07:23:37;;;;;;;4.43;2.63;;;;;;;20.28;71.81;101462.50;20926023;28;20094;-64
2023/06/12 07:33:39;;;;;;;2.63;2.10;;;;;;;20.34;72.20;101463.81;20916261;28;20041;-64
2023/06/12 07:43:41;;;;;;;5.15;2.88;;;;;;;20.38;72.11;101460.69;20929168;28;21769;-64
2023/06/12 07:53:43;;;;;;;5.03;2.30;;;;;;;20.41;71.89;101463.13;20909696;28;20072;-64
2023/06/12 08:03:50;;;;;;;4.55;2.60;;;;;;;20.46;72.00;101459.97;20911882;28;20045;-64
2023/06/12 08:13:54;;;;;;;3.10;2.30;;;;;;;20.56;72.29;101465.41;20932340;28;20121;-64
2023/06/12 08:23:58;;;;;;;;;;;;;;;20.71;71.56;101468.56;20945545;28;21069;-64
2023/06/12 08:34:00;;;;;;;3.17;2.15;;;;;;;20.81;71.43;101465.91;20940803;28;19948;-64
2023/06/12 08:44:02;;;;;;;4.18;2.35;;;;;;;20.89;71.15;101462.47;20936097;28;20136;-64
2023/06/12 08:54:13;;;;;;;4.22;2.85;;;;;;;20.90;70.73;101445.22;20931724;28;20560;-64
2023/06/12 09:04:21;;;;;;;2.42;2.13;;;;;;;21.00;70.55;101449.66;20950372;28;20045;-64
2023/06/12 09:14:23;;;;;;;2.92;2.50;;;;;;;21.06;70.30;101452.78;20912679;28;20049;-64
2023/06/12 09:24:24;;;;;;;4.13;2.33;;;;;;;21.09;70.47;101437.13;20919495;28;20033;-64
2023/06/12 09:34:26;;;;;;;5.20;2.67;;;;;;;21.10;70.76;101438.81;20897721;28;20047;-64
2023/06/12 09:44:29;;;;;;;2.78;2.13;;;;;;;21.09;70.86;101430.84;20921576;28;20524;-64
2023/06/12 09:54:32;;;;;;;2.22;1.92;;;;;;;21.09;71.12;101414.59;20922432;28;20478;-64
2023/06/12 10:04:47;;;;;;;2.80;2.40;;;;;;;21.17;70.96;101422.00;20924774;28;20123;-64
2023/06/12 10:14:49;;;;;;;2.30;2.10;;;;;;;21.18;71.09;101402.88;20938807;28;20079;-64
2023/06/12 10:24:51;;;;;;;3.13;2.75;;;;;;;21.20;71.63;101403.59;20911187;28;20102;-64
2023/06/12 10:34:54;;;;;;;3.15;2.85;;;;;;;21.20;71.33;101383.78;20941137;28;20045;-64
2023/06/12 10:44:55;;;;;;;2.90;2.60;;;;;;;21.23;70.98;101378.94;20940620;28;20448;-64
2023/06/12 10:55:15;;;;;;;3.13;2.83;;;;;;;21.22;70.24;101379.97;20918187;28;20060;-64
2023/06/12 11:05:18;;;;;;;4.13;3.30;;;;;;;21.22;70.42;101376.38;20919741;28;20052;-64
2023/06/12 11:15:21;;;;;;;3.53;3.22;;;;;;;21.22;70.24;101370.97;20953347;28;20072;-64
2023/06/12 11:25:25;;;;;;;3.80;3.28;;;;;;;21.23;69.72;101361.84;20916052;28;20458;-64
2023/06/12 11:35:27;;;;;;;3.42;3.13;;;;;;;21.25;68.48;101355.28;20920678;28;20053;-64
2023/06/12 11:45:30;;;;;;;2.60;2.40;;;;;;;21.32;67.97;101350.13;20957939;28;20052;-64
2023/06/12 11:55:32;;;;;;;3.95;3.58;;;;;;;21.37;67.44;101346.97;20942616;28;20082;-64
2023/06/12 12:05:37;;;;;;;4.60;3.17;;;;;;;21.36;68.13;101332.56;20957439;28;20048;-65
2023/06/12 12:15:40;;;;;;;4.47;3.72;;;;;;;21.36;67.91;101329.03;20942622;28;20074;-65
2023/06/12 12:25:44;;;;;;;5.50;3.65;;;;;;;21.35;68.36;101324.59;20924149;28;20058;-65
2023/06/12 12:35:45;;;;;;;4.45;4.05;;;;;;;21.35;67.90;101332.72;20913359;28;20448;-64
2023/06/12 12:45:47;;;;;;;4.57;3.80;;;;;;;21.35;68.14;101324.59;20901429;28;20493;-65
2023/06/12 12:55:48;;;;;;;4.50;4.10;;;;;;;21.34;67.81;101329.16;20925743;28;20164;-65
2023/06/12 13:05:50;;;;;;;4.60;4.10;;;;;;;21.34;67.28;101312.91;20924273;28;20060;-65
2023/06/12 13:15:52;;;;;;;4.80;4.40;;;;;;;21.34;66.83;101306.66;20946141;28;20412;-65
2023/06/12 13:25:53;;;;;;;4.60;4.20;;;;;;;21.37;68.10;101306.34;20959567;28;20053;-65
2023/06/12 13:35:55;;;;;;;6.18;4.57;;;;;;;21.37;69.01;101306.34;20926764;28;20048;-63
2023/06/12 13:45:58;;;;;;;4.45;3.95;;;;;;;21.39;68.58;101307.88;20936651;28;20060;-63
2023/06/12 13:55:59;;;;;;;5.30;4.55;;;;;;;21.44;67.80;101302.91;20948160;28;20474;-63
2023/06/12 14:06:02;;;;;;;6.07;4.45;;;;;;;21.49;67.02;101301.59;20942948;28;20057;-62
2023/06/12 14:16:04;;;;;;;6.22;4.72;;;;;;;21.53;67.28;101293.00;20905589;28;20060;-63
2023/06/12 14:26:06;;;;;;;5.28;4.78;;;;;;;21.56;67.07;101291.84;20947508;28;20523;-63
2023/06/12 14:36:08;;;;;;;5.93;4.90;;;;;;;21.59;66.40;101280.72;20939820;28;20543;-62
2023/06/12 14:46:09;;;;;;;4.65;4.25;;;;;;;21.63;66.41;101265.84;20962177;28;20041;-63
2023/06/12 14:56:11;;;;;;;5.28;4.78;;;;;;;21.66;65.68;101268.28;20919149;28;20044;-64
2023/06/12 15:06:14;;;;;;;4.82;4.43;;;;;;;21.62;66.03;101272.28;20924925;28;20060;-65
2023/06/12 15:16:16;;;;;;;5.45;4.30;;;;;;;21.64;66.97;101273.00;20941309;28;20044;-66
2023/06/12 15:26:18;;;;;;;4.90;4.40;;;;;;;21.67;67.79;101256.44;20933899;28;20044;-66
2023/06/12 15:36:20;;;;;;;4.68;4.18;;;;;;;21.73;68.90;101263.13;20911454;28;20045;-65
2023/06/12 15:46:22;;;;;;;4.97;4.50;;;;;;;21.81;67.55;101254.22;20913754;28;20417;-65
2023/06/12 15:56:25;;;;;;;4.85;4.45;;;;;;;21.87;66.86;101257.16;20914264;28;20049;-65
2023/06/12 16:06:27;;;;;;;4.30;3.83;;;;;;;21.90;67.02;101263.28;20908442;28;20124;-65
2023/06/12 16:16:28;;;;;;;6.10;4.50;;;;;;;21.88;66.14;101258.88;20938381;28;20048;-65
2023/06/12 16:26:30;;;;;;;5.47;4.75;;;;;;;21.85;67.38;101255.59;20947824;28;20044;-65
2023/06/12 16:36:32;;;;;;;5.00;4.50;;;;;;;21.79;66.20;101248.09;20961952;28;20143;-66
2023/06/12 16:46:33;;;;;;;5.00;4.50;;;;;;;21.73;66.44;101244.16;20966336;28;20124;-65
2023/06/12 16:56:35;;;;;;;5.28;4.63;;;;;;;21.69;66.42;101242.75;20990690;28;20397;-66
2023/06/12 17:06:37;;;;;;;4.70;4.30;;;;;;;21.64;65.76;101250.47;20967374;28;20047;-66
2023/06/12 17:16:38;;;;;;;4.65;4.25;;;;;;;21.59;65.68;101243.63;20946198;28;20076;-65
2023/06/12 17:26:41;;;;;;;4.95;4.47;;;;;;;21.57;65.07;101248.34;20959346;28;20052;-65
2023/06/12 17:36:43;;;;;;;4.95;4.45;;;;;;;21.55;65.49;101253.06;20959208;28;20052;-65
2023/06/12 17:46:44;;;;;;;4.40;4.10;;;;;;;21.53;65.18;101249.66;20966135;28;20047;-66
2023/06/12 17:56:48;;;;;;;4.07;3.70;;;;;;;21.53;64.35;101248.81;20954452;28;20077;-66
2023/06/12 18:06:49;;;;;;;3.50;3.17;;;;;;;21.51;63.58;101243.53;20971323;28;20382;-66
2023/06/12 18:16:51;;;;;;;3.22;2.88;;;;;;;21.52;63.58;101247.13;20941043;28;20625;-66
2023/06/12 18:26:54;;;;;;;3.75;3.20;;;;;;;21.51;62.87;101240.00;20937307;28;20045;-65
2023/06/12 18:36:56;;;;;;;3.42;3.13;;;;;;;21.49;62.87;101248.25;20974469;28;20052;-66
2023/06/12 18:46:58;;;;;;;4.63;3.35;;;;;;;21.47;63.05;101255.69;20949294;28;20156;-66
2023/06/12 18:56:59;;;;;;;3.90;3.40;;;;;;;21.43;63.01;101265.97;20939977;28;20053;-66
2023/06/12 19:07:01;;;;;;;5.25;3.47;;;;;;;21.40;62.71;101268.13;20973344;28;20471;-66
2023/06/12 19:17:04;;;;;;;4.82;3.40;;;;;;;21.36;62.69;101272.97;20978733;28;20044;-66
2023/06/12 19:27:07;;;;;;;3.50;2.92;;;;;;;21.34;62.14;101282.28;20947086;28;20468;-66
2023/06/12 19:37:09;;;;;;;3.30;2.90;;;;;;;21.32;61.65;101289.69;20950939;28;20041;-66
2023/06/12 19:47:10;;;;;;;3.78;3.00;;;;;;;21.25;60.79;101290.31;21016835;28;20131;-66
2023/06/12 19:57:16;;;;;;;3.55;3.17;;;;;;;21.22;60.61;101300.56;20971316;28;20059;-66
2023/06/12 20:07:18;;;;;;;3.35;2.90;;;;;;;21.24;59.59;101312.97;20988236;28;20050;-66
2023/06/12 20:17:22;;;;;;;3.65;3.10;;;;;;;21.22;59.69;101317.69;20974290;28;20055;-65
2023/06/12 20:27:25;;;;;;;4.55;3.33;;;;;;;21.19;59.32;101317.09;21051205;28;20127;-65
2023/06/12 20:37:27;;;;;;;3.65;3.17;;;;;;;21.20;59.95;101330.47;20911171;28;20055;-65
2023/06/12 20:47:28;;;;;;;3.72;3.30;;;;;;;21.19;59.90;101339.59;20978417;28;20474;-65
2023/06/12 20:57:30;;;;;;;5.25;3.20;;;;;;;21.17;60.17;101341.59;20920565;28;20385;-65
2023/06/12 21:07:31;;;;;;;3.55;2.63;;;;;;;21.15;59.39;101366.13;20943665;28;20049;-65
2023/06/12 21:17:33;;;;;;;3.33;2.92;;;;;;;21.13;59.15;101359.16;20984857;28;20459;-65
2023/06/12 21:27:35;;;;;;;3.33;2.85;;;;;;;21.10;59.23;101354.03;20973162;28;20105;-65
2023/06/12 21:37:37;;;;;;;3.63;2.85;;;;;;;21.08;59.23;101343.38;20962552;28;20048;-65
2023/06/12 21:47:38;;;;;;;3.22;2.67;;;;;;;21.07;59.20;101343.50;20957232;28;20560;-65
2023/06/12 21:57:40;;;;;;;2.97;2.47;;;;;;;21.04;58.83;101343.78;20974898;28;20040;-65
2023/06/12 22:07:42;;;;;;;3.22;2.78;;;;;;;20.99;58.68;101336.97;20948568;28;20535;-65
2023/06/12 22:17:44;;;;;;;3.40;2.47;;;;;;;21.01;58.77;101342.25;20943121;28;20124;-65
2023/06/12 22:27:46;;;;;;;2.90;2.40;;;;;;;20.98;58.73;101335.25;20965145;28;20404;-65
2023/06/12 22:37:47;;;;;;;2.38;2.05;;;;;;;20.95;58.58;101343.69;20960003;28;20064;-65
2023/06/12 22:47:51;;;;;;;2.47;2.22;;;;;;;20.94;58.29;101346.50;20939714;28;20413;-65
2023/06/12 22:57:53;;;;;;;3.15;2.60;;;;;;;20.91;58.08;101353.09;20967298;28;20048;-65
2023/06/12 23:07:55;;;;;;;3.15;2.60;;;;;;;20.89;57.92;101360.50;20980928;28;20052;-65
2023/06/12 23:17:58;;;;;;;2.50;2.30;;;;;;;20.87;57.73;101357.09;20943176;28;20171;-65
2023/06/12 23:28:00;;;;;;;3.03;2.72;;;;;;;20.85;57.38;101364.50;20985842;28;20040;-65
2023/06/12 23:38:02;;;;;;;2.47;2.15;;;;;;;20.82;57.15;101364.78;20960861;28;20045;-65
2023/06/12 23:48:04;;;;;;;2.42;2.20;;;;;;;20.81;57.09;101373.91;20970177;28;20151;-66
2023/06/12 23:58:06;;;;;;;2.75;2.45;;;;;;;20.79;56.81;101367.78;20944190;28;20076;-65
